createdAt,value
2023-02-16T00:00:14.885Z,0.00
2023-02-16T00:01:14.859Z,0.00
2023-02-16T00:02:14.899Z,0.00
2023-02-16T00:03:14.841Z,0.00
2023-02-16T00:04:14.841Z,0.00
2023-02-16T00:05:14.825Z,0.00
2023-02-16T00:06:14.818Z,0.00
2023-02-16T00:07:14.785Z,0.00
2023-02-16T00:08:14.784Z,0.00
2023-02-16T00:09:14.828Z,0.00
2023-02-16T00:10:14.767Z,0.00
2023-02-16T00:11:14.689Z,1.00
2023-02-16T00:12:14.729Z,0.00
2023-02-16T00:13:14.733Z,0.00
2023-02-16T00:14:14.721Z,0.00
2023-02-16T00:15:14.729Z,0.00
2023-02-16T00:16:14.784Z,0.00
2023-02-16T00:17:14.692Z,0.00
2023-02-16T00:18:14.667Z,0.00
2023-02-16T00:19:14.672Z,0.00
2023-02-16T00:20:14.664Z,0.00
2023-02-16T00:21:14.639Z,0.00
2023-02-16T00:22:14.632Z,0.00
2023-02-16T00:23:14.632Z,0.00
2023-02-16T00:24:14.603Z,0.00
2023-02-16T00:25:14.609Z,0.00
2023-02-16T00:26:14.601Z,0.00
2023-02-16T00:27:14.594Z,0.00
2023-02-16T00:28:14.564Z,0.00
2023-02-16T00:29:14.573Z,0.00
2023-02-16T00:30:14.617Z,0.00
2023-02-16T00:31:14.628Z,0.00
2023-02-16T00:32:14.788Z,0.00
2023-02-16T00:33:14.523Z,0.00
2023-02-16T00:34:14.519Z,0.00
2023-02-16T00:35:14.504Z,0.00
2023-02-16T00:36:14.496Z,0.00
2023-02-16T00:37:14.482Z,0.00
2023-02-16T00:38:14.471Z,0.00
2023-02-16T00:39:14.474Z,0.00
2023-02-16T00:40:14.451Z,0.00
2023-02-16T00:41:14.441Z,0.00
2023-02-16T00:42:14.424Z,0.00
2023-02-16T00:43:14.416Z,0.00
2023-02-16T00:44:14.868Z,0.00
2023-02-16T00:45:14.396Z,0.00
2023-02-16T00:46:14.585Z,0.00
2023-02-16T00:47:14.380Z,0.00
2023-02-16T00:48:14.366Z,0.00
2023-02-16T00:49:14.369Z,0.00
2023-02-16T00:50:14.343Z,0.00
2023-02-16T00:51:25.534Z,0.00
2023-02-16T00:52:14.402Z,0.00
2023-02-16T00:53:14.320Z,0.00
2023-02-16T00:54:14.315Z,0.00
2023-02-16T00:55:14.313Z,0.00
2023-02-16T00:56:14.291Z,0.00
2023-02-16T00:57:14.300Z,0.00
2023-02-16T00:58:14.340Z,0.00
2023-02-16T00:59:14.259Z,0.00
2023-02-16T01:00:14.238Z,0.00
2023-02-16T01:01:14.256Z,0.00
2023-02-16T01:02:14.216Z,0.00
2023-02-16T01:03:14.221Z,0.00
2023-02-16T01:04:14.270Z,0.00
2023-02-16T01:05:14.200Z,0.00
2023-02-16T01:06:14.221Z,0.00
2023-02-16T01:07:14.168Z,0.00
2023-02-16T01:08:14.162Z,0.00
2023-02-16T01:09:14.217Z,0.00
2023-02-16T01:10:14.131Z,0.00
2023-02-16T01:11:14.121Z,0.00
2023-02-16T01:12:14.110Z,0.00
2023-02-16T01:13:14.134Z,0.00
2023-02-16T01:14:14.094Z,0.00
2023-02-16T01:15:14.089Z,0.00
2023-02-16T01:16:14.080Z,0.00
2023-02-16T01:17:14.059Z,0.00
2023-02-16T01:18:14.047Z,0.00
2023-02-16T01:19:14.054Z,0.00
2023-02-16T01:20:14.026Z,0.00
2023-02-16T01:21:14.022Z,0.00
2023-02-16T01:22:14.019Z,0.00
2023-02-16T01:23:14.006Z,0.00
2023-02-16T01:24:13.997Z,0.00
2023-02-16T01:25:13.978Z,0.00
2023-02-16T01:26:13.966Z,0.00
2023-02-16T01:27:13.973Z,0.00
2023-02-16T01:28:13.944Z,0.00
2023-02-16T01:29:13.946Z,0.00
2023-02-16T01:30:13.998Z,0.00
2023-02-16T01:31:14.076Z,0.00
2023-02-16T01:32:14.077Z,0.00
2023-02-16T01:33:13.897Z,0.00
2023-02-16T01:34:13.890Z,0.00
2023-02-16T01:35:13.891Z,0.00
2023-02-16T01:36:13.864Z,0.00
2023-02-16T01:37:13.865Z,0.00
2023-02-16T01:38:13.842Z,0.00
2023-02-16T01:39:13.848Z,0.00
2023-02-16T01:40:13.839Z,0.00
2023-02-16T01:41:13.814Z,0.00
2023-02-16T01:42:13.812Z,0.00
2023-02-16T01:43:13.799Z,0.00
2023-02-16T01:44:13.873Z,0.00
2023-02-16T01:45:13.793Z,0.00
2023-02-16T01:46:13.792Z,0.00
2023-02-16T01:47:13.773Z,0.00
2023-02-16T01:48:13.743Z,0.00
2023-02-16T01:49:13.743Z,0.00
2023-02-16T01:50:13.742Z,0.00
2023-02-16T01:51:13.716Z,0.00
2023-02-16T01:52:13.708Z,0.00
2023-02-16T01:53:13.703Z,0.00
2023-02-16T01:54:13.717Z,0.00
2023-02-16T01:55:13.672Z,0.00
2023-02-16T01:56:13.667Z,0.00
2023-02-16T01:57:13.663Z,0.00
2023-02-16T01:58:13.642Z,0.00
2023-02-16T01:59:13.725Z,0.00
2023-02-16T02:00:13.617Z,0.00
2023-02-16T02:01:13.609Z,0.00
2023-02-16T02:02:13.604Z,0.00
2023-02-16T02:03:13.585Z,0.00
2023-02-16T02:04:13.595Z,0.00
2023-02-16T02:05:13.589Z,0.00
2023-02-16T02:06:13.559Z,0.00
2023-02-16T02:07:13.549Z,0.00
2023-02-16T02:08:13.538Z,0.00
2023-02-16T02:09:13.605Z,0.00
2023-02-16T02:10:13.521Z,0.00
2023-02-16T02:11:13.506Z,0.00
2023-02-16T02:12:13.492Z,0.00
2023-02-16T02:13:13.487Z,0.00
2023-02-16T02:14:13.498Z,0.00
2023-02-16T02:15:13.469Z,0.00
2023-02-16T02:16:13.495Z,0.00
2023-02-16T02:17:13.465Z,0.00
2023-02-16T02:18:13.426Z,0.00
2023-02-16T02:19:13.430Z,0.00
2023-02-16T02:20:13.413Z,0.00
2023-02-16T02:21:13.403Z,0.00
2023-02-16T02:22:13.398Z,0.00
2023-02-16T02:23:13.385Z,0.00
2023-02-16T02:24:16.000Z,0.00
2023-02-16T02:25:13.358Z,0.00
2023-02-16T02:26:13.362Z,0.00
2023-02-16T02:27:13.353Z,0.00
2023-02-16T02:28:13.334Z,0.00
2023-02-16T02:29:13.321Z,0.00
2023-02-16T02:30:13.400Z,0.00
2023-02-16T02:31:13.417Z,0.00
2023-02-16T02:32:13.435Z,0.00
2023-02-16T02:33:13.292Z,0.00
2023-02-16T02:34:13.257Z,0.00
2023-02-16T02:35:13.256Z,0.00
2023-02-16T02:36:13.251Z,0.00
2023-02-16T02:37:13.233Z,0.00
2023-02-16T02:38:13.270Z,0.00
2023-02-16T02:39:13.218Z,0.00
2023-02-16T02:40:13.222Z,0.00
2023-02-16T02:41:13.216Z,0.00
2023-02-16T02:42:13.213Z,0.00
2023-02-16T02:43:13.189Z,0.00
2023-02-16T02:44:13.241Z,0.00
2023-02-16T02:45:13.151Z,0.00
2023-02-16T02:46:13.224Z,0.00
2023-02-16T02:47:13.131Z,0.00
2023-02-16T02:48:13.127Z,0.00
2023-02-16T02:49:13.196Z,0.00
2023-02-16T02:50:13.092Z,0.00
2023-02-16T02:51:13.109Z,0.00
2023-02-16T02:52:13.069Z,0.00
2023-02-16T02:53:13.068Z,0.00
2023-02-16T02:54:13.074Z,0.00
2023-02-16T02:55:13.046Z,0.00
2023-02-16T02:56:13.041Z,0.00
2023-02-16T02:57:13.024Z,0.00
2023-02-16T02:58:13.006Z,0.00
2023-02-16T02:59:13.010Z,0.00
2023-02-16T03:00:12.984Z,0.00
2023-02-16T03:01:13.038Z,0.00
2023-02-16T03:02:13.025Z,0.00
2023-02-16T03:03:12.965Z,0.00
2023-02-16T03:04:13.761Z,0.00
2023-02-16T03:05:12.965Z,0.00
2023-02-16T03:06:12.918Z,0.00
2023-02-16T03:07:18.891Z,0.00
2023-02-16T03:08:12.905Z,0.00
2023-02-16T03:09:12.903Z,0.00
2023-02-16T03:10:12.900Z,0.00
2023-02-16T03:11:12.875Z,0.00
2023-02-16T03:12:12.859Z,0.00
2023-02-16T03:13:12.852Z,0.00
2023-02-16T03:14:12.843Z,0.00
2023-02-16T03:15:12.831Z,0.00
2023-02-16T03:16:12.859Z,0.00
2023-02-16T03:17:12.812Z,0.00
2023-02-16T03:18:12.797Z,0.00
2023-02-16T03:19:12.787Z,0.00
2023-02-16T03:20:12.781Z,0.00
2023-02-16T03:21:12.798Z,0.00
2023-02-16T03:22:12.753Z,0.00
2023-02-16T03:23:12.744Z,0.00
2023-02-16T03:24:12.746Z,0.00
2023-02-16T03:25:12.728Z,0.00
2023-02-16T03:26:12.720Z,0.00
2023-02-16T03:27:12.713Z,0.00
2023-02-16T03:28:12.686Z,0.00
2023-02-16T03:29:12.687Z,0.00
2023-02-16T03:30:12.734Z,0.00
2023-02-16T03:31:12.854Z,0.00
2023-02-16T03:32:12.718Z,0.00
2023-02-16T03:33:12.656Z,0.00
2023-02-16T03:34:12.620Z,0.00
2023-02-16T03:35:12.637Z,0.00
2023-02-16T03:36:12.614Z,0.00
2023-02-16T03:37:12.592Z,0.00
2023-02-16T03:38:12.576Z,0.00
2023-02-16T03:39:12.579Z,0.00
2023-02-16T03:40:12.563Z,0.00
2023-02-16T03:41:12.577Z,0.00
2023-02-16T03:42:12.533Z,0.00
2023-02-16T03:43:12.530Z,0.00
2023-02-16T03:44:12.525Z,0.00
2023-02-16T03:45:12.523Z,0.00
2023-02-16T03:46:12.512Z,0.00
2023-02-16T03:47:12.498Z,0.00
2023-02-16T03:48:12.489Z,0.00
2023-02-16T03:49:12.550Z,0.00
2023-02-16T03:50:12.454Z,0.00
2023-02-16T03:51:12.466Z,0.00
2023-02-16T03:52:12.431Z,0.00
2023-02-16T03:53:12.422Z,0.00
2023-02-16T03:54:12.496Z,0.00
2023-02-16T03:55:12.400Z,0.00
2023-02-16T03:56:12.423Z,0.00
2023-02-16T03:57:12.425Z,0.00
2023-02-16T03:58:12.374Z,0.00
2023-02-16T03:59:12.354Z,0.00
2023-02-16T04:00:12.374Z,0.00
2023-02-16T04:01:12.370Z,0.00
2023-02-16T04:02:12.366Z,0.00
2023-02-16T04:03:12.332Z,0.00
2023-02-16T04:04:12.378Z,0.00
2023-02-16T04:05:12.289Z,0.00
2023-02-16T04:06:12.282Z,0.00
2023-02-16T04:07:12.274Z,0.00
2023-02-16T04:08:12.271Z,0.00
2023-02-16T04:09:12.261Z,0.00
2023-02-16T04:10:12.250Z,0.00
2023-02-16T04:11:12.226Z,0.00
2023-02-16T04:12:12.230Z,0.00
2023-02-16T04:13:12.209Z,0.00
2023-02-16T04:14:12.212Z,0.00
2023-02-16T04:15:12.185Z,0.00
2023-02-16T04:16:12.192Z,0.00
2023-02-16T04:17:12.164Z,0.00
2023-02-16T04:18:12.161Z,0.00
2023-02-16T04:19:12.153Z,0.00
2023-02-16T04:20:12.142Z,0.00
2023-02-16T04:21:12.125Z,0.00
2023-02-16T04:22:12.119Z,0.00
2023-02-16T04:23:12.101Z,0.00
2023-02-16T04:24:12.114Z,0.00
2023-02-16T04:25:12.079Z,0.00
2023-02-16T04:26:12.089Z,0.00
2023-02-16T04:27:12.175Z,0.00
2023-02-16T04:28:12.054Z,0.00
2023-02-16T04:29:12.035Z,0.00
2023-02-16T04:30:12.067Z,0.00
2023-02-16T04:31:12.196Z,0.00
2023-02-16T04:32:12.205Z,0.00
2023-02-16T04:33:11.997Z,0.00
2023-02-16T04:34:11.994Z,0.00
2023-02-16T04:35:11.976Z,0.00
2023-02-16T04:36:11.989Z,0.00
2023-02-16T04:37:11.983Z,0.00
2023-02-16T04:38:11.957Z,0.00
2023-02-16T04:39:11.929Z,0.00
2023-02-16T04:40:11.931Z,0.00
2023-02-16T04:41:11.938Z,0.00
2023-02-16T04:42:11.910Z,0.00
2023-02-16T04:43:11.894Z,0.00
2023-02-16T04:44:11.933Z,0.00
2023-02-16T04:45:11.892Z,0.00
2023-02-16T04:46:11.938Z,0.00
2023-02-16T04:47:11.865Z,0.00
2023-02-16T04:48:11.850Z,0.00
2023-02-16T04:49:11.837Z,0.00
2023-02-16T04:50:11.836Z,0.00
2023-02-16T04:51:11.813Z,0.00
2023-02-16T04:52:11.797Z,0.00
2023-02-16T04:53:11.808Z,0.00
2023-02-16T04:54:11.813Z,0.00
2023-02-16T04:55:11.873Z,0.00
2023-02-16T04:56:11.806Z,0.00
2023-02-16T04:57:11.744Z,0.00
2023-02-16T04:58:11.750Z,0.00
2023-02-16T04:59:11.738Z,0.00
2023-02-16T05:00:11.819Z,0.00
2023-02-16T05:01:11.743Z,0.00
2023-02-16T05:02:11.715Z,0.00
2023-02-16T05:03:11.742Z,0.00
2023-02-16T05:04:11.700Z,0.00
2023-02-16T05:05:11.663Z,0.00
2023-02-16T05:06:11.648Z,0.00
2023-02-16T05:07:11.648Z,0.00
2023-02-16T05:08:11.628Z,0.00
2023-02-16T05:09:11.625Z,0.00
2023-02-16T05:10:11.610Z,0.00
2023-02-16T05:11:11.585Z,0.00
2023-02-16T05:12:11.582Z,0.00
2023-02-16T05:13:11.584Z,0.00
2023-02-16T05:14:11.576Z,0.00
2023-02-16T05:15:11.560Z,0.00
2023-02-16T05:16:11.736Z,0.00
2023-02-16T05:17:11.551Z,0.00
2023-02-16T05:18:11.534Z,0.00
2023-02-16T05:19:11.506Z,0.00
2023-02-16T05:20:11.516Z,0.00
2023-02-16T05:21:11.479Z,0.00
2023-02-16T05:22:11.485Z,0.00
2023-02-16T05:23:11.457Z,0.00
2023-02-16T05:24:11.461Z,0.00
2023-02-16T05:25:11.458Z,0.00
2023-02-16T05:26:11.445Z,0.00
2023-02-16T05:27:11.445Z,0.00
2023-02-16T05:28:11.508Z,0.00
2023-02-16T05:29:11.401Z,0.00
2023-02-16T05:30:11.472Z,0.00
2023-02-16T05:31:11.521Z,0.00
2023-02-16T05:32:11.411Z,0.00
2023-02-16T05:33:11.381Z,0.00
2023-02-16T05:34:11.358Z,0.00
2023-02-16T05:35:11.351Z,0.00
2023-02-16T05:36:11.331Z,0.00
2023-02-16T05:37:11.330Z,0.00
2023-02-16T05:38:11.332Z,0.00
2023-02-16T05:39:11.347Z,0.00
2023-02-16T05:40:11.336Z,0.00
2023-02-16T05:41:11.283Z,0.00
2023-02-16T05:42:11.277Z,0.00
2023-02-16T05:43:11.268Z,0.00
2023-02-16T05:44:11.843Z,0.00
2023-02-16T05:45:11.251Z,0.00
2023-02-16T05:46:11.288Z,0.00
2023-02-16T05:47:11.244Z,0.00
2023-02-16T05:48:11.202Z,0.00
2023-02-16T05:49:11.188Z,0.00
2023-02-16T05:50:11.200Z,0.00
2023-02-16T05:51:11.172Z,0.00
2023-02-16T05:52:11.185Z,0.00
2023-02-16T05:53:11.141Z,0.00
2023-02-16T05:54:11.148Z,0.00
2023-02-16T05:55:11.122Z,0.00
2023-02-16T05:56:11.116Z,0.00
2023-02-16T05:57:11.101Z,0.00
2023-02-16T05:58:11.092Z,0.00
2023-02-16T05:59:11.076Z,0.00
2023-02-16T06:00:11.085Z,0.00
2023-02-16T06:01:11.069Z,0.00
2023-02-16T06:02:11.011Z,1.00
2023-02-16T06:03:11.061Z,0.00
2023-02-16T06:04:11.029Z,0.00
2023-02-16T06:05:11.021Z,0.00
2023-02-16T06:06:11.006Z,0.00
2023-02-16T06:07:13.112Z,0.00
2023-02-16T06:08:10.938Z,1.00
2023-02-16T06:09:10.972Z,0.00
2023-02-16T06:10:10.967Z,0.00
2023-02-16T06:11:10.945Z,0.00
2023-02-16T06:12:10.960Z,0.00
2023-02-16T06:13:10.932Z,0.00
2023-02-16T06:14:10.914Z,0.00
2023-02-16T06:15:10.917Z,0.00
2023-02-16T06:16:10.987Z,1.00
2023-02-16T06:17:10.835Z,1.00
2023-02-16T06:18:10.832Z,1.00
2023-02-16T06:19:10.808Z,1.00
2023-02-16T06:20:10.797Z,1.00
2023-02-16T06:21:10.796Z,1.00
2023-02-16T06:22:10.789Z,1.00
2023-02-16T06:23:10.767Z,1.00
2023-02-16T06:24:10.767Z,2.00
2023-02-16T06:25:10.763Z,1.00
2023-02-16T06:26:10.731Z,1.00
2023-02-16T06:27:10.719Z,1.00
2023-02-16T06:28:10.714Z,2.00
2023-02-16T06:29:10.722Z,2.00
2023-02-16T06:30:10.753Z,2.00
2023-02-16T06:31:10.735Z,1.00
2023-02-16T06:32:10.855Z,1.00
2023-02-16T06:33:10.654Z,3.00
2023-02-16T06:34:10.636Z,4.00
2023-02-16T06:35:10.633Z,2.00
2023-02-16T06:36:10.969Z,7.00
2023-02-16T06:37:10.601Z,4.00
2023-02-16T06:38:10.596Z,6.00
2023-02-16T06:39:10.593Z,6.00
2023-02-16T06:40:10.597Z,5.00
2023-02-16T06:41:10.568Z,8.00
2023-02-16T06:42:10.567Z,14.00
2023-02-16T06:43:10.536Z,13.00
2023-02-16T06:44:10.526Z,11.00
2023-02-16T06:45:10.525Z,14.00
2023-02-16T06:46:10.513Z,15.00
2023-02-16T06:47:10.514Z,14.00
2023-02-16T06:48:10.486Z,14.00
2023-02-16T06:49:10.473Z,12.00
2023-02-16T06:50:10.481Z,19.00
2023-02-16T06:51:10.444Z,18.00
2023-02-16T06:52:10.438Z,20.00
2023-02-16T06:53:10.428Z,19.00
2023-02-16T06:54:10.417Z,24.00
2023-02-16T06:55:10.403Z,29.00
2023-02-16T06:56:10.405Z,28.00
2023-02-16T06:57:10.391Z,25.00
2023-02-16T06:58:10.378Z,32.00
2023-02-16T06:59:10.371Z,35.00
2023-02-16T07:00:10.355Z,34.00
2023-02-16T07:01:10.449Z,39.00
2023-02-16T07:02:10.339Z,37.00
2023-02-16T07:03:10.396Z,38.00
2023-02-16T07:04:10.316Z,43.00
2023-02-16T07:05:10.295Z,46.00
2023-02-16T07:06:10.288Z,48.00
2023-02-16T07:07:10.296Z,57.00
2023-02-16T07:08:10.267Z,55.00
2023-02-16T07:09:12.417Z,49.00
2023-02-16T07:10:10.247Z,56.00
2023-02-16T07:11:10.227Z,56.00
2023-02-16T07:12:10.220Z,62.00
2023-02-16T07:13:10.216Z,65.00
2023-02-16T07:14:10.231Z,65.00
2023-02-16T07:15:10.182Z,68.00
2023-02-16T07:16:10.250Z,70.00
2023-02-16T07:17:10.162Z,73.00
2023-02-16T07:18:10.161Z,63.00
2023-02-16T07:19:10.146Z,64.00
2023-02-16T07:20:10.134Z,72.00
2023-02-16T07:21:10.157Z,73.00
2023-02-16T07:22:10.129Z,82.00
2023-02-16T07:23:10.108Z,82.00
2023-02-16T07:24:10.126Z,82.00
2023-02-16T07:25:10.073Z,80.00
2023-02-16T07:26:10.086Z,78.00
2023-02-16T07:27:10.057Z,83.00
2023-02-16T07:28:10.058Z,85.00
2023-02-16T07:29:10.032Z,89.00
2023-02-16T07:30:10.088Z,89.00
2023-02-16T07:31:10.139Z,95.00
2023-02-16T07:32:10.160Z,102.00
2023-02-16T07:33:09.991Z,101.00
2023-02-16T07:34:09.985Z,107.00
2023-02-16T07:35:09.963Z,110.00
2023-02-16T07:36:09.989Z,116.00
2023-02-16T07:37:10.148Z,123.00
2023-02-16T07:38:09.944Z,128.00
2023-02-16T07:39:09.929Z,129.00
2023-02-16T07:40:09.930Z,128.00
2023-02-16T07:41:10.601Z,133.00
2023-02-16T07:42:09.895Z,126.00
2023-02-16T07:43:09.876Z,124.00
2023-02-16T07:44:09.878Z,119.00
2023-02-16T07:45:09.853Z,119.00
2023-02-16T07:46:09.934Z,106.00
2023-02-16T07:47:09.835Z,105.00
2023-02-16T07:48:09.842Z,109.00
2023-02-16T07:49:09.812Z,104.00
2023-02-16T07:50:09.826Z,98.00
2023-02-16T07:51:09.796Z,107.00
2023-02-16T07:52:09.787Z,119.00
2023-02-16T07:53:11.177Z,129.00
2023-02-16T07:54:09.775Z,136.00
2023-02-16T07:55:09.765Z,142.00
2023-02-16T07:56:09.755Z,145.00
2023-02-16T07:57:09.738Z,140.00
2023-02-16T07:58:09.720Z,133.00
2023-02-16T07:59:09.703Z,128.00
2023-02-16T08:00:09.859Z,121.00
2023-02-16T08:01:09.704Z,119.00
2023-02-16T08:02:09.802Z,122.00
2023-02-16T08:03:09.805Z,146.00
2023-02-16T08:04:09.658Z,166.00
2023-02-16T08:05:09.646Z,170.00
2023-02-16T08:06:09.640Z,179.00
2023-02-16T08:07:09.628Z,189.00
2023-02-16T08:08:09.620Z,206.00
2023-02-16T08:09:09.619Z,219.00
2023-02-16T08:10:09.630Z,237.00
2023-02-16T08:11:09.606Z,263.00
2023-02-16T08:12:09.604Z,278.00
2023-02-16T08:13:09.592Z,298.00
2023-02-16T08:14:09.545Z,307.00
2023-02-16T08:15:09.543Z,317.00
2023-02-16T08:16:09.569Z,345.00
2023-02-16T08:17:09.664Z,349.00
2023-02-16T08:18:09.546Z,337.00
2023-02-16T08:19:09.555Z,333.00
2023-02-16T08:20:09.551Z,317.00
2023-02-16T08:21:09.528Z,304.00
2023-02-16T08:22:09.472Z,286.00
2023-02-16T08:23:09.461Z,280.00
2023-02-16T08:24:09.469Z,284.00
2023-02-16T08:25:09.466Z,287.00
2023-02-16T08:26:09.531Z,299.00
2023-02-16T08:27:09.435Z,315.00
2023-02-16T08:28:09.403Z,336.00
2023-02-16T08:29:09.397Z,360.00
2023-02-16T08:30:09.448Z,390.00
2023-02-16T08:31:09.448Z,419.00
2023-02-16T08:32:09.420Z,438.00
2023-02-16T08:33:09.397Z,439.00
2023-02-16T08:34:09.338Z,444.00
2023-02-16T08:35:09.355Z,429.00
2023-02-16T08:36:09.326Z,408.00
2023-02-16T08:37:09.338Z,387.00
2023-02-16T08:38:09.300Z,361.00
2023-02-16T08:39:09.326Z,328.00
2023-02-16T08:40:09.294Z,305.00
2023-02-16T08:41:09.282Z,292.00
2023-02-16T08:42:09.261Z,280.00
2023-02-16T08:43:09.268Z,277.00
2023-02-16T08:44:09.237Z,267.00
2023-02-16T08:45:09.230Z,264.00
2023-02-16T08:46:09.320Z,265.00
2023-02-16T08:47:09.215Z,282.00
2023-02-16T08:48:09.188Z,319.00
2023-02-16T08:49:09.218Z,363.00
2023-02-16T08:50:09.174Z,396.00
2023-02-16T08:51:09.180Z,415.00
2023-02-16T08:52:09.150Z,411.00
2023-02-16T08:53:09.172Z,412.00
2023-02-16T08:54:09.131Z,412.00
2023-02-16T08:55:09.132Z,418.00
2023-02-16T08:56:09.111Z,408.00
2023-02-16T08:57:09.107Z,404.00
2023-02-16T08:58:09.121Z,406.00
2023-02-16T08:59:09.105Z,405.00
2023-02-16T09:00:09.077Z,422.00
2023-02-16T09:01:09.091Z,430.00
2023-02-16T09:02:09.176Z,447.00
2023-02-16T09:03:09.041Z,449.00
2023-02-16T09:04:09.024Z,470.00
2023-02-16T09:05:09.022Z,457.00
2023-02-16T09:06:08.992Z,461.00
2023-02-16T09:07:08.998Z,454.00
2023-02-16T09:08:08.988Z,415.00
2023-02-16T09:09:08.974Z,412.00
2023-02-16T09:10:08.953Z,426.00
2023-02-16T09:11:08.966Z,451.00
2023-02-16T09:12:08.930Z,440.00
2023-02-16T09:13:08.943Z,435.00
2023-02-16T09:14:08.905Z,419.00
2023-02-16T09:15:08.918Z,406.00
2023-02-16T09:16:08.887Z,375.00
2023-02-16T09:17:08.918Z,362.00
2023-02-16T09:18:08.892Z,362.00
2023-02-16T09:19:08.859Z,369.00
2023-02-16T09:20:08.854Z,370.00
2023-02-16T09:21:08.858Z,372.00
2023-02-16T09:22:08.832Z,374.00
2023-02-16T09:23:08.816Z,377.00
2023-02-16T09:24:08.809Z,397.00
2023-02-16T09:25:08.810Z,418.00
2023-02-16T09:26:08.822Z,431.00
2023-02-16T09:27:08.803Z,504.00
2023-02-16T09:28:08.760Z,586.00
2023-02-16T09:29:08.772Z,620.00
2023-02-16T09:30:08.750Z,686.00
2023-02-16T09:31:08.955Z,770.00
2023-02-16T09:32:08.720Z,652.00
2023-02-16T09:33:08.712Z,571.00
2023-02-16T09:34:08.724Z,568.00
2023-02-16T09:35:08.692Z,597.00
2023-02-16T09:36:08.690Z,619.00
2023-02-16T09:37:08.711Z,618.00
2023-02-16T09:38:08.654Z,605.00
2023-02-16T09:39:08.680Z,611.00
2023-02-16T09:40:08.635Z,636.00
2023-02-16T09:41:10.028Z,632.00
2023-02-16T09:42:08.609Z,616.00
2023-02-16T09:43:08.610Z,607.00
2023-02-16T09:44:08.607Z,655.00
2023-02-16T09:45:08.585Z,681.00
2023-02-16T09:46:08.599Z,689.00
2023-02-16T09:47:08.576Z,726.00
2023-02-16T09:48:08.547Z,737.00
2023-02-16T09:49:08.558Z,652.00
2023-02-16T09:50:08.522Z,682.00
2023-02-16T09:51:08.577Z,709.00
2023-02-16T09:52:08.506Z,668.00
2023-02-16T09:53:08.500Z,669.00
2023-02-16T09:54:08.495Z,683.00
2023-02-16T09:55:08.480Z,659.00
2023-02-16T09:56:08.462Z,615.00
2023-02-16T09:57:08.462Z,570.00
2023-02-16T09:58:08.452Z,524.00
2023-02-16T09:59:10.612Z,512.00
2023-02-16T10:00:08.423Z,498.00
2023-02-16T10:01:08.494Z,448.00
2023-02-16T10:02:08.447Z,434.00
2023-02-16T10:03:08.390Z,409.00
2023-02-16T10:04:08.377Z,417.00
2023-02-16T10:05:08.406Z,429.00
2023-02-16T10:06:08.373Z,452.00
2023-02-16T10:07:08.354Z,454.00
2023-02-16T10:08:08.338Z,444.00
2023-02-16T10:09:08.326Z,432.00
2023-02-16T10:10:08.321Z,422.00
2023-02-16T10:11:08.305Z,401.00
2023-02-16T10:12:08.300Z,397.00
2023-02-16T10:13:08.289Z,407.00
2023-02-16T10:14:08.282Z,414.00
2023-02-16T10:15:08.277Z,423.00
2023-02-16T10:16:08.299Z,411.00
2023-02-16T10:17:08.239Z,429.00
2023-02-16T10:18:08.240Z,435.00
2023-02-16T10:19:08.220Z,437.00
2023-02-16T10:20:08.206Z,440.00
2023-02-16T10:21:08.219Z,447.00
2023-02-16T10:22:08.219Z,437.00
2023-02-16T10:23:08.171Z,419.00
2023-02-16T10:24:08.184Z,397.00
2023-02-16T10:25:08.158Z,378.00
2023-02-16T10:26:08.182Z,373.00
2023-02-16T10:27:08.152Z,364.00
2023-02-16T10:28:08.122Z,337.00
2023-02-16T10:29:08.120Z,326.00
2023-02-16T10:30:08.231Z,321.00
2023-02-16T10:31:08.565Z,329.00
2023-02-16T10:32:08.122Z,327.00
2023-02-16T10:33:08.082Z,317.00
2023-02-16T10:34:08.091Z,308.00
2023-02-16T10:35:08.063Z,297.00
2023-02-16T10:36:08.052Z,299.00
2023-02-16T10:37:08.034Z,309.00
2023-02-16T10:38:08.014Z,314.00
2023-02-16T10:39:08.011Z,312.00
2023-02-16T10:40:08.005Z,310.00
2023-02-16T10:41:07.992Z,320.00
2023-02-16T10:42:07.988Z,323.00
2023-02-16T10:43:07.996Z,309.00
2023-02-16T10:44:07.953Z,302.00
2023-02-16T10:45:07.958Z,303.00
2023-02-16T10:46:07.959Z,312.00
2023-02-16T10:47:07.943Z,310.00
2023-02-16T10:48:07.929Z,325.00
2023-02-16T10:49:07.907Z,349.00
2023-02-16T10:50:07.899Z,391.00
2023-02-16T10:51:07.881Z,405.00
2023-02-16T10:52:07.872Z,409.00
2023-02-16T10:53:07.902Z,436.00
2023-02-16T10:54:07.867Z,461.00
2023-02-16T10:55:07.848Z,477.00
2023-02-16T10:56:07.831Z,508.00
2023-02-16T10:57:07.847Z,553.00
2023-02-16T10:58:07.845Z,620.00
2023-02-16T10:59:07.824Z,692.00
2023-02-16T11:00:07.810Z,729.00
2023-02-16T11:01:07.777Z,727.00
2023-02-16T11:02:07.767Z,708.00
2023-02-16T11:03:07.771Z,707.00
2023-02-16T11:04:07.785Z,714.00
2023-02-16T11:05:07.740Z,710.00
2023-02-16T11:06:07.730Z,708.00
2023-02-16T11:07:07.726Z,703.00
2023-02-16T11:08:07.727Z,699.00
2023-02-16T11:09:07.716Z,707.00
2023-02-16T11:10:07.679Z,716.00
2023-02-16T11:11:07.671Z,719.00
2023-02-16T11:12:07.661Z,718.00
2023-02-16T11:13:07.650Z,717.00
2023-02-16T11:14:09.171Z,719.00
2023-02-16T11:15:07.642Z,721.00
2023-02-16T11:16:07.670Z,717.00
2023-02-16T11:17:07.613Z,709.00
2023-02-16T11:18:13.585Z,700.00
2023-02-16T11:19:07.601Z,697.00
2023-02-16T11:20:07.572Z,701.00
2023-02-16T11:21:07.646Z,692.00
2023-02-16T11:22:07.561Z,695.00
2023-02-16T11:23:07.547Z,734.00
2023-02-16T11:24:07.540Z,760.00
2023-02-16T11:25:09.061Z,768.00
2023-02-16T11:26:07.512Z,731.00
2023-02-16T11:27:07.509Z,750.00
2023-02-16T11:28:07.495Z,769.00
2023-02-16T11:29:07.500Z,771.00
2023-02-16T11:30:07.493Z,818.00
2023-02-16T11:31:07.891Z,854.00
2023-02-16T11:32:07.508Z,858.00
2023-02-16T11:33:07.445Z,829.00
2023-02-16T11:34:07.426Z,791.00
2023-02-16T11:35:07.429Z,745.00
2023-02-16T11:36:07.410Z,710.00
2023-02-16T11:37:07.435Z,687.00
2023-02-16T11:38:07.397Z,672.00
2023-02-16T11:39:07.759Z,664.00
2023-02-16T11:40:07.380Z,654.00
2023-02-16T11:41:07.467Z,654.00
2023-02-16T11:42:07.345Z,663.00
2023-02-16T11:43:07.334Z,651.00
2023-02-16T11:44:07.327Z,624.00
2023-02-16T11:45:07.345Z,628.00
2023-02-16T11:46:07.581Z,640.00
2023-02-16T11:47:07.407Z,667.00
2023-02-16T11:48:07.280Z,689.00
2023-02-16T11:49:07.258Z,711.00
2023-02-16T11:50:07.268Z,709.00
2023-02-16T11:51:07.408Z,605.00
2023-02-16T11:52:07.264Z,506.00
2023-02-16T11:53:07.215Z,418.00
2023-02-16T11:54:07.204Z,382.00
2023-02-16T11:55:07.195Z,354.00
2023-02-16T11:56:07.243Z,350.00
2023-02-16T11:57:07.176Z,302.00
2023-02-16T11:58:07.162Z,274.00
2023-02-16T11:59:07.151Z,341.00
2023-02-16T12:00:07.152Z,387.00
2023-02-16T12:01:07.146Z,392.00
2023-02-16T12:02:07.124Z,409.00
2023-02-16T12:03:07.215Z,379.00
2023-02-16T12:04:07.129Z,338.00
2023-02-16T12:05:07.143Z,333.00
2023-02-16T12:06:07.079Z,331.00
2023-02-16T12:07:07.073Z,332.00
2023-02-16T12:08:07.056Z,309.00
2023-02-16T12:09:07.051Z,317.00
2023-02-16T12:10:07.048Z,342.00
2023-02-16T12:11:07.294Z,408.00
2023-02-16T12:12:07.013Z,425.00
2023-02-16T12:13:07.004Z,428.00
2023-02-16T12:14:07.001Z,408.00
2023-02-16T12:15:06.995Z,391.00
2023-02-16T12:16:08.861Z,352.00
2023-02-16T12:17:06.967Z,301.00
2023-02-16T12:18:06.956Z,253.00
2023-02-16T12:19:06.938Z,284.00
2023-02-16T12:20:06.950Z,347.00
2023-02-16T12:21:06.931Z,334.00
2023-02-16T12:22:06.916Z,400.00
2023-02-16T12:23:06.897Z,545.00
2023-02-16T12:24:06.892Z,561.00
2023-02-16T12:25:06.874Z,496.00
2023-02-16T12:26:07.132Z,447.00
2023-02-16T12:27:06.860Z,428.00
2023-02-16T12:28:06.843Z,441.00
2023-02-16T12:29:06.837Z,422.00
2023-02-16T12:30:06.851Z,399.00
2023-02-16T12:31:06.830Z,409.00
2023-02-16T12:32:06.863Z,391.00
2023-02-16T12:33:06.784Z,375.00
2023-02-16T12:34:06.784Z,355.00
2023-02-16T12:35:06.761Z,401.00
2023-02-16T12:36:07.030Z,479.00
2023-02-16T12:37:06.752Z,532.00
2023-02-16T12:38:06.738Z,582.00
2023-02-16T12:39:06.729Z,601.00
2023-02-16T12:40:06.715Z,642.00
2023-02-16T12:41:06.705Z,675.00
2023-02-16T12:42:06.701Z,610.00
2023-02-16T12:43:06.693Z,596.00
2023-02-16T12:44:06.685Z,656.00
2023-02-16T12:45:06.684Z,670.00
2023-02-16T12:46:07.179Z,674.00
2023-02-16T12:47:06.636Z,633.00
2023-02-16T12:48:06.648Z,637.00
2023-02-16T12:49:06.610Z,648.00
2023-02-16T12:50:06.607Z,626.00
2023-02-16T12:51:06.762Z,604.00
2023-02-16T12:52:06.586Z,615.00
2023-02-16T12:53:06.600Z,627.00
2023-02-16T12:54:06.560Z,650.00
2023-02-16T12:55:06.560Z,632.00